Red Cliffs, Australia
Current Conditions -  °F | °C
As of 7:00 PM on Monday 24 Nov 2014 (Local Time) from YMIA Reporting Station
Clear Clear  
Wind Chill: 73°   Ceiling: Unl
Heat Index: 73°   Visibility: 6mi
Dew Point: 46°   Wind: 21mph
Humidity: 38%   Direction: 220°SW
Pressure: 29.85"   Gusts: 32mph
Location:  34.31°S, 142.19°E
Report Text: YMIA 240800Z AUTO 22018G28KT 9999 // NCD 23/08 Q1011
Loading
Personal Weather Stations






























Interactive Weather Map New forecast layout! Learn more

10-Day Weather Forecast

Advertisements
Track Severe Weather on mobile